Horseshoe Lake, Arkansas
Current Conditions -  °F | °C
As of 2:53 AM on Wednesday 26 Nov 2014 (Local Time) from KAWM Reporting Station
Clear Clear  
Wind Chill: 30°   Ceiling: Unl
Heat Index: 30°   Visibility: 10mi
Dew Point: 29°   Wind: 3mph
Humidity: 96%   Direction: 150°SSE
Pressure: 30.15"   Gusts: NA
Location:  34.9503°N, 90.5078°W
Report Text: KAWM 260853Z AUTO 15003KT 10SM CLR M01/M02 A3015 RMK AO2 SLP210 I3001 T10111017 57005
Loading
Personal Weather Stations






























Interactive Weather Map New forecast layout! Learn more

10-Day Weather Forecast

Advertisements
Track Severe Weather on mobile